createdAt,value
2022-10-02T00:00:33.471Z,11.10
2022-10-02T00:03:24.278Z,11.20
2022-10-02T00:06:20.812Z,11.20
2022-10-02T00:08:51.062Z,11.30
2022-10-02T00:11:24.579Z,11.30
2022-10-02T00:14:01.890Z,11.40
2022-10-02T00:16:40.963Z,11.40
2022-10-02T00:19:11.193Z,11.50
2022-10-02T00:21:44.260Z,11.50
2022-10-02T00:24:17.768Z,11.60
2022-10-02T00:27:03.725Z,11.60
2022-10-02T00:29:47.498Z,11.70
2022-10-02T00:32:41.986Z,11.60
2022-10-02T00:35:17.718Z,11.70
2022-10-02T00:38:05.387Z,11.70
2022-10-02T00:41:00.126Z,11.70
2022-10-02T00:43:55.570Z,11.70
2022-10-02T00:46:28.596Z,11.70
2022-10-02T00:49:25.159Z,11.80
2022-10-02T00:52:10.029Z,11.80
2022-10-02T00:55:04.780Z,11.80
2022-10-02T00:58:16.570Z,11.80
2022-10-02T01:00:50.769Z,11.80
2022-10-02T01:03:39.554Z,11.80
2022-10-02T01:06:08.464Z,11.90
2022-10-02T01:08:36.906Z,11.90
2022-10-02T01:11:05.446Z,11.90
2022-10-02T01:13:34.240Z,11.90
2022-10-02T01:16:01.479Z,11.90
2022-10-02T01:18:29.916Z,11.90
2022-10-02T01:21:04.327Z,11.80
2022-10-02T01:23:59.937Z,11.80
2022-10-02T01:26:26.685Z,11.90
2022-10-02T01:28:53.763Z,11.90
2022-10-02T01:31:20.641Z,11.80
2022-10-02T01:33:49.398Z,11.80
2022-10-02T01:36:17.063Z,11.80
2022-10-02T01:38:44.929Z,11.80
2022-10-02T01:41:12.570Z,11.70
2022-10-02T01:43:50.245Z,11.80
2022-10-02T01:46:24.747Z,11.70
2022-10-02T01:49:24.873Z,11.70
2022-10-02T01:52:03.620Z,11.80
2022-10-02T01:55:02.243Z,11.70
2022-10-02T01:57:41.156Z,11.80
2022-10-02T02:00:19.443Z,11.70
2022-10-02T02:02:52.693Z,11.60
2022-10-02T02:05:26.807Z,11.70
2022-10-02T02:07:58.706Z,11.70
2022-10-02T02:10:38.566Z,11.80
2022-10-02T02:13:15.975Z,11.80
2022-10-02T02:16:06.335Z,11.80
2022-10-02T02:18:53.474Z,11.80
2022-10-02T02:21:29.800Z,11.90
2022-10-02T02:23:59.797Z,11.90
2022-10-02T02:26:28.763Z,11.90
2022-10-02T02:29:01.127Z,11.90
2022-10-02T02:31:34.283Z,11.90
2022-10-02T02:34:06.202Z,12.00
2022-10-02T02:36:38.766Z,12.00
2022-10-02T02:39:12.034Z,11.90
2022-10-02T02:41:49.781Z,11.90
2022-10-02T02:44:28.077Z,11.90
2022-10-02T02:47:23.701Z,11.90
2022-10-02T02:50:12.084Z,12.00
2022-10-02T02:53:12.571Z,11.80
2022-10-02T02:55:48.177Z,11.80
2022-10-02T02:58:23.220Z,11.80
2022-10-02T03:00:50.213Z,11.80
2022-10-02T03:03:17.495Z,11.80
2022-10-02T03:05:48.845Z,11.80
2022-10-02T03:08:37.451Z,11.80
2022-10-02T03:11:16.625Z,11.90
2022-10-02T03:14:10.816Z,11.90
2022-10-02T03:17:08.585Z,11.90
2022-10-02T03:19:51.079Z,11.90
2022-10-02T03:22:29.669Z,11.80
2022-10-02T03:25:18.555Z,11.90
2022-10-02T03:27:54.798Z,11.90
2022-10-02T03:30:22.094Z,11.90
2022-10-02T03:32:56.196Z,11.80
2022-10-02T03:35:25.166Z,11.70
2022-10-02T03:37:59.284Z,11.80
2022-10-02T03:40:27.399Z,11.80
2022-10-02T03:42:58.214Z,11.80
2022-10-02T03:45:49.266Z,11.80
2022-10-02T03:48:13.184Z,11.80
2022-10-02T03:50:40.109Z,11.70
2022-10-02T03:53:21.915Z,11.80
2022-10-02T03:55:55.327Z,11.90
2022-10-02T03:58:22.071Z,11.80
2022-10-02T04:00:55.312Z,11.80
2022-10-02T04:03:27.355Z,11.90
2022-10-02T04:06:02.618Z,11.90
2022-10-02T04:08:39.354Z,11.90
2022-10-02T04:11:25.163Z,11.90
2022-10-02T04:14:03.783Z,11.80
2022-10-02T04:16:56.274Z,11.90
2022-10-02T04:19:30.512Z,11.80
2022-10-02T04:22:18.082Z,11.80
2022-10-02T04:25:06.889Z,11.80
2022-10-02T04:27:51.884Z,11.80
2022-10-02T04:30:20.391Z,11.80
2022-10-02T04:32:47.644Z,11.80
2022-10-02T04:35:15.746Z,11.80
2022-10-02T04:38:09.753Z,11.80
2022-10-02T04:41:12.068Z,11.80
2022-10-02T04:44:01.484Z,11.80
2022-10-02T04:46:43.415Z,11.80
2022-10-02T04:49:16.270Z,11.80
2022-10-02T04:52:24.257Z,11.80
2022-10-02T04:55:18.401Z,11.80
2022-10-02T04:58:21.227Z,11.80
2022-10-02T05:01:20.393Z,11.80
2022-10-02T05:04:00.764Z,11.70
2022-10-02T05:06:45.792Z,11.70
2022-10-02T05:09:34.815Z,11.80
2022-10-02T05:12:37.114Z,11.70
2022-10-02T05:15:15.539Z,11.80
2022-10-02T05:18:09.492Z,11.80
2022-10-02T05:20:48.274Z,11.80
2022-10-02T05:23:24.104Z,11.80
2022-10-02T05:26:05.629Z,11.80
2022-10-02T05:28:47.419Z,11.80
2022-10-02T05:31:18.039Z,11.80
2022-10-02T05:34:17.187Z,11.80
2022-10-02T05:37:10.639Z,11.90
2022-10-02T05:39:48.632Z,11.90
2022-10-02T05:42:23.213Z,11.80
2022-10-02T05:45:04.350Z,11.80
2022-10-02T05:47:37.066Z,11.70
2022-10-02T05:50:21.383Z,11.70
2022-10-02T05:53:02.827Z,11.60
2022-10-02T05:55:42.903Z,11.70
2022-10-02T05:58:27.620Z,11.70
2022-10-02T06:01:17.921Z,11.70
2022-10-02T06:04:12.955Z,11.80
2022-10-02T06:06:46.889Z,11.80
2022-10-02T06:09:20.455Z,11.90
2022-10-02T06:11:56.879Z,11.90
2022-10-02T06:14:53.579Z,11.90
2022-10-02T06:17:31.209Z,12.10
2022-10-02T06:20:21.247Z,12.10
2022-10-02T06:22:55.469Z,12.20
2022-10-02T06:25:30.261Z,12.40
2022-10-02T06:28:09.978Z,12.50
2022-10-02T06:30:45.432Z,12.50
2022-10-02T06:33:19.932Z,12.40
2022-10-02T06:36:01.916Z,12.50
2022-10-02T06:38:53.259Z,12.50
2022-10-02T06:41:28.843Z,12.50
2022-10-02T06:44:23.110Z,12.50
2022-10-02T06:47:01.976Z,12.50
2022-10-02T06:50:09.762Z,12.60
2022-10-02T06:53:12.193Z,12.70
2022-10-02T06:56:11.261Z,12.80
2022-10-02T06:58:55.432Z,13.00
2022-10-02T07:01:37.186Z,13.10
2022-10-02T07:04:06.865Z,13.20
2022-10-02T07:06:50.421Z,13.30
2022-10-02T07:09:17.063Z,13.50
2022-10-02T07:11:51.557Z,13.60
2022-10-02T07:14:49.452Z,13.80
2022-10-02T07:17:34.861Z,13.80
2022-10-02T07:20:11.095Z,13.80
2022-10-02T07:23:07.819Z,13.90
2022-10-02T07:25:58.488Z,13.90
2022-10-02T07:28:46.747Z,14.00
2022-10-02T07:31:51.456Z,14.10
2022-10-02T07:34:30.082Z,14.20
2022-10-02T07:37:35.503Z,14.40
2022-10-02T07:40:40.143Z,14.60
2022-10-02T07:43:25.964Z,14.80
2022-10-02T07:46:20.512Z,14.80
2022-10-02T07:49:03.369Z,15.00
2022-10-02T07:52:05.113Z,15.10
2022-10-02T07:54:49.895Z,15.20
2022-10-02T07:57:35.401Z,15.20
2022-10-02T08:00:16.023Z,15.10
2022-10-02T08:02:54.997Z,15.20
2022-10-02T08:05:23.572Z,15.40
2022-10-02T08:07:55.398Z,15.60
2022-10-02T08:10:26.551Z,15.70
2022-10-02T08:13:03.096Z,15.90
2022-10-02T08:15:39.652Z,15.90
2022-10-02T08:18:36.103Z,16.00
2022-10-02T08:21:12.211Z,16.00
2022-10-02T08:23:49.419Z,16.20
2022-10-02T08:26:35.131Z,16.20
2022-10-02T08:29:12.082Z,16.30
2022-10-02T08:31:38.952Z,16.30
2022-10-02T08:34:16.582Z,16.30
2022-10-02T08:37:04.815Z,16.30
2022-10-02T08:39:55.586Z,16.20
2022-10-02T08:42:31.197Z,16.30
2022-10-02T08:45:22.246Z,16.40
2022-10-02T08:48:07.505Z,16.50
2022-10-02T08:50:45.537Z,16.60
2022-10-02T08:53:29.556Z,16.50
2022-10-02T08:56:23.123Z,16.60
2022-10-02T08:59:08.849Z,16.70
2022-10-02T09:01:59.905Z,16.70
2022-10-02T09:05:10.143Z,16.80
2022-10-02T09:07:58.526Z,16.90
2022-10-02T09:10:45.740Z,17.00
2022-10-02T09:13:26.351Z,17.20
2022-10-02T09:15:53.022Z,17.20
2022-10-02T09:18:56.698Z,17.30
2022-10-02T09:21:45.365Z,17.40
2022-10-02T09:24:41.039Z,17.50
2022-10-02T09:27:32.021Z,17.60
2022-10-02T09:30:51.655Z,17.70
2022-10-02T09:33:34.262Z,17.70
2022-10-02T09:36:32.195Z,17.90
2022-10-02T09:39:30.163Z,18.30
2022-10-02T09:42:20.915Z,18.30
2022-10-02T09:45:07.410Z,18.60
2022-10-02T09:48:07.012Z,18.70
2022-10-02T09:50:36.580Z,18.50
2022-10-02T09:53:09.182Z,18.50
2022-10-02T09:55:57.671Z,18.60
2022-10-02T09:58:46.058Z,18.80
2022-10-02T10:01:32.990Z,19.00
2022-10-02T10:04:42.183Z,19.00
2022-10-02T10:07:35.340Z,18.90
2022-10-02T10:10:30.075Z,18.70
2022-10-02T10:13:07.477Z,18.50
2022-10-02T10:16:11.939Z,18.30
2022-10-02T10:18:56.715Z,17.90
2022-10-02T10:21:51.282Z,17.80
2022-10-02T10:24:45.071Z,17.60
2022-10-02T10:27:56.235Z,17.50
2022-10-02T10:30:34.828Z,17.40
2022-10-02T10:33:20.074Z,17.40
2022-10-02T10:36:36.621Z,17.30
2022-10-02T10:39:30.610Z,17.10
2022-10-02T10:42:50.197Z,16.90
2022-10-02T10:45:41.444Z,17.00
2022-10-02T10:48:23.060Z,16.90
2022-10-02T10:50:53.886Z,16.80
2022-10-02T10:53:45.255Z,16.70
2022-10-02T10:56:37.705Z,16.80
2022-10-02T10:59:27.175Z,16.70
2022-10-02T11:02:17.891Z,16.70
2022-10-02T11:05:05.006Z,16.80
2022-10-02T11:07:48.628Z,16.60
2022-10-02T11:10:33.870Z,16.60
2022-10-02T11:13:34.410Z,16.50
2022-10-02T11:16:28.926Z,16.50
2022-10-02T11:19:07.742Z,16.40
2022-10-02T11:22:10.384Z,16.50
2022-10-02T11:25:14.602Z,16.50
2022-10-02T11:28:02.741Z,16.40
2022-10-02T11:30:54.944Z,16.30
2022-10-02T11:33:27.879Z,16.30
2022-10-02T11:36:22.099Z,16.30
2022-10-02T11:39:22.183Z,16.30
2022-10-02T11:42:13.341Z,16.40
2022-10-02T11:44:54.965Z,16.70
2022-10-02T11:47:31.384Z,16.90
2022-10-02T11:50:16.923Z,17.00
2022-10-02T11:52:59.998Z,17.60
2022-10-02T11:55:50.430Z,18.00
2022-10-02T11:58:45.141Z,18.10
2022-10-02T12:01:36.141Z,18.10
2022-10-02T12:04:17.389Z,18.10
2022-10-02T12:07:10.674Z,18.30
2022-10-02T12:10:02.153Z,18.40
2022-10-02T12:12:51.621Z,18.30
2022-10-02T12:15:40.308Z,18.20
2022-10-02T12:18:37.786Z,18.20
2022-10-02T12:21:39.919Z,18.10
2022-10-02T12:24:59.393Z,17.90
2022-10-02T12:27:59.510Z,17.70
2022-10-02T12:30:44.367Z,17.40
2022-10-02T12:33:35.266Z,17.30
2022-10-02T12:36:16.821Z,17.30
2022-10-02T12:39:27.138Z,17.50
2022-10-02T12:42:40.980Z,17.70
2022-10-02T12:45:16.403Z,17.70
2022-10-02T12:48:02.114Z,17.70
2022-10-02T12:50:37.462Z,17.70
2022-10-02T12:53:16.465Z,17.70
2022-10-02T12:56:06.643Z,17.60
2022-10-02T12:58:33.332Z,17.60
2022-10-02T13:01:21.796Z,17.70
2022-10-02T13:04:19.387Z,17.80
2022-10-02T13:07:21.019Z,17.70
2022-10-02T13:09:54.593Z,17.30
2022-10-02T13:12:50.886Z,16.90
2022-10-02T13:15:26.283Z,16.50
2022-10-02T13:18:01.228Z,16.30
2022-10-02T13:20:51.469Z,16.10
2022-10-02T13:23:41.680Z,15.90
2022-10-02T13:26:33.839Z,15.70
2022-10-02T13:29:22.048Z,15.70
2022-10-02T13:32:23.966Z,15.70
2022-10-02T13:35:11.761Z,15.60
2022-10-02T13:38:00.319Z,15.60
2022-10-02T13:40:41.333Z,15.50
2022-10-02T13:43:34.478Z,15.40
2022-10-02T13:46:25.919Z,15.40
2022-10-02T13:49:11.280Z,15.30
2022-10-02T13:51:57.616Z,15.20
2022-10-02T13:54:58.466Z,15.10
2022-10-02T13:57:52.810Z,15.00
2022-10-02T14:00:44.134Z,14.90
2022-10-02T14:03:40.311Z,14.80
2022-10-02T14:06:25.024Z,14.70
2022-10-02T14:09:25.952Z,14.70
2022-10-02T14:12:20.597Z,14.60
2022-10-02T14:14:56.312Z,14.60
2022-10-02T14:17:39.318Z,14.50
2022-10-02T14:20:22.467Z,14.50
2022-10-02T14:23:01.649Z,14.50
2022-10-02T14:25:57.484Z,14.50
2022-10-02T14:28:33.386Z,14.50
2022-10-02T14:31:37.078Z,14.40
2022-10-02T14:34:44.411Z,14.40
2022-10-02T14:37:22.931Z,14.40
2022-10-02T14:39:49.726Z,14.30
2022-10-02T14:42:32.427Z,14.40
2022-10-02T14:45:21.673Z,14.40
2022-10-02T14:47:57.428Z,14.40
2022-10-02T14:51:18.477Z,14.30
2022-10-02T14:54:19.321Z,14.20
2022-10-02T14:57:19.316Z,14.20
2022-10-02T15:00:01.736Z,14.20
2022-10-02T15:02:37.414Z,14.20
2022-10-02T15:05:31.188Z,14.10
2022-10-02T15:07:59.971Z,14.10
2022-10-02T15:10:35.365Z,14.10
2022-10-02T15:13:23.495Z,14.10
2022-10-02T15:16:32.775Z,14.10
2022-10-02T15:19:31.246Z,14.20
2022-10-02T15:22:14.660Z,14.20
2022-10-02T15:24:46.235Z,14.10
2022-10-02T15:27:22.783Z,14.10
2022-10-02T15:30:02.950Z,14.00
2022-10-02T15:32:44.709Z,14.00
2022-10-02T15:35:33.191Z,14.00
2022-10-02T15:38:23.993Z,14.10
2022-10-02T15:41:12.358Z,14.10
2022-10-02T15:44:15.827Z,14.10
2022-10-02T15:46:54.550Z,14.20
2022-10-02T15:50:04.538Z,14.20
2022-10-02T15:52:34.023Z,14.10
2022-10-02T15:55:22.399Z,14.10
2022-10-02T15:58:20.320Z,14.00
2022-10-02T16:01:05.979Z,14.00
2022-10-02T16:03:50.714Z,13.90
2022-10-02T16:06:36.446Z,13.90
2022-10-02T16:09:39.891Z,13.90
2022-10-02T16:12:27.739Z,13.90
2022-10-02T16:15:21.910Z,13.80
2022-10-02T16:17:48.583Z,13.80
2022-10-02T16:20:51.606Z,13.80
2022-10-02T16:23:45.175Z,13.80
2022-10-02T16:26:21.002Z,13.90
2022-10-02T16:28:53.233Z,13.90
2022-10-02T16:31:42.270Z,13.80
2022-10-02T16:34:33.546Z,13.80
2022-10-02T16:37:07.920Z,13.80
2022-10-02T16:39:53.228Z,13.80
2022-10-02T16:42:34.601Z,13.90
2022-10-02T16:45:32.633Z,13.80
2022-10-02T16:48:14.345Z,13.80
2022-10-02T16:50:47.211Z,13.80
2022-10-02T16:53:31.853Z,13.70
2022-10-02T16:56:47.106Z,13.70
2022-10-02T16:59:42.836Z,13.70
2022-10-02T17:02:34.308Z,13.70
2022-10-02T17:05:44.028Z,13.70
2022-10-02T17:08:17.198Z,13.70
2022-10-02T17:11:04.863Z,13.60
2022-10-02T17:13:44.644Z,13.60
2022-10-02T17:16:25.622Z,13.60
2022-10-02T17:18:57.437Z,13.50
2022-10-02T17:21:44.536Z,13.50
2022-10-02T17:24:20.000Z,13.50
2022-10-02T17:27:18.890Z,13.50
2022-10-02T17:30:05.097Z,13.50
2022-10-02T17:32:34.724Z,13.60
2022-10-02T17:35:01.871Z,13.50
2022-10-02T17:37:52.818Z,13.50
2022-10-02T17:40:55.765Z,13.50
2022-10-02T17:43:41.095Z,13.50
2022-10-02T17:46:19.865Z,13.50
2022-10-02T17:49:00.869Z,13.50
2022-10-02T17:52:23.542Z,13.60
2022-10-02T17:55:21.727Z,13.60
2022-10-02T17:57:59.191Z,13.60
2022-10-02T18:00:26.534Z,13.50
2022-10-02T18:02:53.195Z,13.50
2022-10-02T18:05:47.179Z,13.50
2022-10-02T18:08:34.268Z,13.60
2022-10-02T18:11:07.498Z,13.50
2022-10-02T18:13:56.053Z,13.50
2022-10-02T18:16:50.812Z,13.40
2022-10-02T18:19:27.881Z,13.40
2022-10-02T18:22:09.538Z,13.50
2022-10-02T18:24:51.975Z,13.60
2022-10-02T18:27:26.673Z,13.40
2022-10-02T18:29:59.074Z,13.40
2022-10-02T18:32:45.194Z,13.50
2022-10-02T18:35:22.127Z,13.60
2022-10-02T18:38:20.635Z,13.50
2022-10-02T18:40:52.740Z,13.60
2022-10-02T18:43:30.863Z,13.60
2022-10-02T18:46:03.500Z,13.50
2022-10-02T18:48:48.831Z,13.40
2022-10-02T18:51:19.937Z,13.40
2022-10-02T18:54:03.193Z,13.30
2022-10-02T18:57:11.545Z,13.40
2022-10-02T18:59:55.074Z,13.40
2022-10-02T19:02:45.639Z,13.30
2022-10-02T19:05:19.428Z,13.10
2022-10-02T19:07:50.366Z,13.10
2022-10-02T19:10:32.687Z,13.10
2022-10-02T19:13:29.533Z,13.10
2022-10-02T19:15:58.767Z,13.10
2022-10-02T19:18:31.215Z,13.10
2022-10-02T19:21:00.872Z,13.10
2022-10-02T19:23:39.852Z,13.10
2022-10-02T19:26:24.930Z,13.00
2022-10-02T19:29:15.052Z,12.90
2022-10-02T19:31:42.236Z,12.90
2022-10-02T19:34:20.835Z,12.90
2022-10-02T19:36:53.101Z,12.80
2022-10-02T19:39:26.713Z,12.90
2022-10-02T19:41:56.387Z,12.90
2022-10-02T19:44:31.825Z,12.90
2022-10-02T19:47:02.558Z,12.80
2022-10-02T19:49:39.382Z,12.70
2022-10-02T19:52:35.940Z,12.70
2022-10-02T19:55:25.090Z,12.70
2022-10-02T19:57:59.676Z,12.80
2022-10-02T20:00:28.132Z,12.80
2022-10-02T20:02:59.032Z,12.80
2022-10-02T20:05:29.952Z,12.80
2022-10-02T20:08:05.706Z,12.70
2022-10-02T20:11:13.128Z,12.60
2022-10-02T20:14:03.367Z,12.70
2022-10-02T20:16:48.854Z,12.70
2022-10-02T20:19:25.547Z,12.70
2022-10-02T20:21:58.182Z,12.60
2022-10-02T20:24:50.615Z,12.70
2022-10-02T20:27:42.755Z,12.70
2022-10-02T20:30:19.291Z,12.60
2022-10-02T20:33:11.714Z,12.70
2022-10-02T20:36:19.351Z,12.60
2022-10-02T20:38:55.705Z,12.60
2022-10-02T20:41:29.933Z,12.60
2022-10-02T20:44:02.365Z,12.60
2022-10-02T20:47:01.903Z,12.60
2022-10-02T20:49:40.566Z,12.60
2022-10-02T20:52:32.626Z,12.50
2022-10-02T20:55:18.398Z,12.50
2022-10-02T20:58:01.053Z,12.40
2022-10-02T21:00:53.824Z,12.40
2022-10-02T21:03:53.929Z,12.40
2022-10-02T21:06:41.427Z,12.50
2022-10-02T21:09:36.153Z,12.50
2022-10-02T21:12:28.055Z,12.50
2022-10-02T21:15:20.271Z,12.50
2022-10-02T21:18:23.937Z,12.50
2022-10-02T21:21:05.664Z,12.40
2022-10-02T21:24:11.468Z,12.40
2022-10-02T21:26:44.196Z,12.40
2022-10-02T21:29:15.364Z,12.30
2022-10-02T21:31:56.342Z,12.30
2022-10-02T21:34:35.503Z,12.30
2022-10-02T21:37:12.961Z,12.40
2022-10-02T21:39:59.522Z,12.40
2022-10-02T21:42:35.634Z,12.40
2022-10-02T21:45:12.475Z,12.40
2022-10-02T21:48:24.231Z,12.40
2022-10-02T21:51:25.562Z,12.30
2022-10-02T21:53:55.217Z,12.20
2022-10-02T21:56:59.604Z,12.20
2022-10-02T21:59:58.133Z,12.20
2022-10-02T22:02:47.364Z,12.20
2022-10-02T22:05:23.191Z,12.10
2022-10-02T22:08:08.122Z,12.10
2022-10-02T22:10:55.365Z,12.00
2022-10-02T22:13:39.339Z,12.10
2022-10-02T22:16:30.724Z,12.10
2022-10-02T22:19:34.964Z,12.00
2022-10-02T22:22:10.395Z,12.10
2022-10-02T22:24:47.086Z,12.00
2022-10-02T22:27:34.611Z,12.00
2022-10-02T22:30:01.630Z,12.00
2022-10-02T22:32:46.942Z,12.00
2022-10-02T22:35:41.329Z,12.00
2022-10-02T22:38:22.559Z,12.00
2022-10-02T22:40:58.866Z,12.00
2022-10-02T22:43:40.808Z,11.90
2022-10-02T22:46:46.982Z,11.90
2022-10-02T22:49:35.467Z,11.90
2022-10-02T22:52:23.487Z,11.90
2022-10-02T22:55:08.375Z,11.90
2022-10-02T22:57:49.834Z,11.90
2022-10-02T23:00:17.071Z,11.90
2022-10-02T23:02:52.997Z,11.90
2022-10-02T23:05:31.012Z,11.80
2022-10-02T23:08:04.129Z,11.80
2022-10-02T23:10:40.206Z,11.90
2022-10-02T23:13:26.430Z,11.90
2022-10-02T23:16:02.713Z,11.90
2022-10-02T23:18:45.264Z,11.80
2022-10-02T23:21:12.118Z,11.90
2022-10-02T23:24:08.008Z,11.90
2022-10-02T23:26:55.671Z,11.90
2022-10-02T23:29:50.236Z,12.00
2022-10-02T23:32:27.799Z,12.00
2022-10-02T23:35:02.974Z,12.00
2022-10-02T23:37:44.953Z,12.00
2022-10-02T23:40:15.012Z,12.00
2022-10-02T23:43:14.610Z,11.90
2022-10-02T23:45:57.899Z,11.90
2022-10-02T23:48:25.420Z,11.90
2022-10-02T23:51:19.881Z,11.90
2022-10-02T23:53:46.735Z,11.90
2022-10-02T23:56:39.905Z,11.90
2022-10-02T23:59:24.820Z,11.90
